Three Lakes, WI (54562)

4:02 AM CDT on August 25, 2016 (GMT -0500)
Downtown Three Lakes | | Change Station

Elev 1658 ft 45.80 °N, 89.18 °W | Updated 2 minutes ago

Clear
Clear
55.9 °F
Feels Like 55.9 °F
N
0.0
Wind Variable Wind from SW
Gusts 0.0 mph

Today
High -- | Low -- °F
--% Chance of Precip.
Yesterday
High -- | Low -- °F
Precip. -- in
Pressure 29.97 in
Visibility 10.0 miles
Clouds Clear
Dew Point 53 °F
Humidity 91%
Rainfall Not available.
Snow Depth Not available.
6:09 AM 7:46 PM
Waning Gibbous, 47% visible
METAR KEGV 250855Z AUTO 25004KT 10SM CLR 14/13 A2997 RMK AO2 T01370133
Pressure 29.97 in
Visibility 10.0 miles
Clouds Clear
Dew Point 53 °F
Humidity 91%
Rainfall Not available.
Snow Depth Not available.
6:09 AM 7:46 PM
Waning Gibbous, 47% visible
METAR KEGV 250855Z AUTO 25004KT 10SM CLR 14/13 A2997 RMK AO2 T01370133

10-Day Weather Forecast

Almanac

Astronomy

Aug. 25, 2016 Rise Set
Actual Time
Civil Twilight
Nautical Twilight
Astronomical Twilight
Moon
Length of Visible Light
Length of Day
Tomorrow will be .
, % of the Moon is Illuminated

Today's Extremes

State Highs State Lows

Community

WunderPhotos

Upload Photos

1,934,814 photos uploaded!

WunderBlog® & News

Nearby

Air Quality

  Air Quality AQ Index Pollutant
Not available.

Snow Depth

Station Depth Elevation

Earthquake Activity

City Distance Mag. Time & Date
Minimum magnitude displayed is 2.5.

Coastal Water Temperatures

Place Temperature

Stations

Nearby Weather Stations

Station Location Temp. Windchill Dew Point Humidity Wind Precip. Elev Updated Type
                   

Watches & Warnings

There are currently no watches in effect.